createdAt,value
2023-02-11T00:00:12.850Z,100166.63
2023-02-11T00:02:39.325Z,100167.88
2023-02-11T00:05:06.563Z,100171.16
2023-02-11T00:07:34.397Z,100169.13
2023-02-11T00:10:02.866Z,100166.19
2023-02-11T00:12:29.474Z,100157.94
2023-02-11T00:14:55.989Z,100146.72
2023-02-11T00:17:22.740Z,100168.78
2023-02-11T00:19:50.820Z,100166.19
2023-02-11T00:22:17.671Z,100163.00
2023-02-11T00:24:44.322Z,100156.81
2023-02-11T00:27:10.917Z,100143.75
2023-02-11T00:29:38.404Z,100143.78
2023-02-11T00:32:05.659Z,100141.06
2023-02-11T00:34:33.216Z,100137.19
2023-02-11T00:37:02.613Z,100125.16
2023-02-11T00:39:29.363Z,100139.19
2023-02-11T00:41:56.061Z,100138.16
2023-02-11T00:44:22.528Z,100137.50
2023-02-11T00:46:49.559Z,100145.53
2023-02-11T00:49:16.054Z,100147.03
2023-02-11T00:51:42.505Z,100145.47
2023-02-11T00:54:09.315Z,100138.78
2023-02-11T00:56:35.981Z,100153.97
2023-02-11T00:59:02.424Z,100147.06
2023-02-11T01:01:28.919Z,100145.25
2023-02-11T01:03:55.404Z,100144.00
2023-02-11T01:06:23.132Z,100142.09
2023-02-11T01:08:49.687Z,100145.78
2023-02-11T01:11:20.550Z,100149.66
2023-02-11T01:13:48.870Z,100152.81
2023-02-11T01:16:16.309Z,100152.91
2023-02-11T01:18:44.245Z,100152.06
2023-02-11T01:21:11.166Z,100154.47
2023-02-11T01:23:37.619Z,100151.78
2023-02-11T01:26:05.136Z,100124.81
2023-02-11T01:28:32.254Z,100132.03
2023-02-11T01:31:01.812Z,100127.22
2023-02-11T01:33:28.724Z,100131.41
2023-02-11T01:35:55.194Z,100136.25
2023-02-11T01:38:24.868Z,100133.50
2023-02-11T01:41:02.326Z,100131.19
2023-02-11T01:43:34.710Z,100131.06
2023-02-11T01:46:07.516Z,100127.19
2023-02-11T01:48:38.678Z,100114.59
2023-02-11T01:51:28.806Z,100111.75
2023-02-11T01:54:15.625Z,100113.88
2023-02-11T01:57:05.093Z,100104.44
2023-02-11T01:59:41.486Z,100104.53
2023-02-11T02:02:11.996Z,100092.06
2023-02-11T02:04:46.641Z,100096.44
2023-02-11T02:07:24.326Z,100086.25
2023-02-11T02:09:58.225Z,100073.28
2023-02-11T02:12:24.651Z,100079.94
2023-02-11T02:14:51.115Z,100072.59
2023-02-11T02:17:38.259Z,100071.28
2023-02-11T02:20:29.979Z,100079.31
2023-02-11T02:22:59.492Z,100080.69
2023-02-11T02:25:53.865Z,100072.06
2023-02-11T02:28:38.287Z,100064.47
2023-02-11T02:31:35.658Z,100068.84
2023-02-11T02:34:09.297Z,100060.09
2023-02-11T02:36:59.094Z,100059.94
2023-02-11T02:39:29.388Z,100049.22
2023-02-11T02:41:56.798Z,100055.47
2023-02-11T02:44:23.932Z,100064.66
2023-02-11T02:46:50.534Z,100064.03
2023-02-11T02:49:17.838Z,100054.47
2023-02-11T02:51:59.945Z,100062.84
2023-02-11T02:55:00.609Z,100057.88
2023-02-11T02:57:36.166Z,100053.91
2023-02-11T03:00:46.638Z,100052.63
2023-02-11T03:03:38.023Z,100066.16
2023-02-11T03:06:42.273Z,100069.59
2023-02-11T03:09:32.461Z,100066.94
2023-02-11T03:12:02.428Z,100080.00
2023-02-11T03:14:30.916Z,100075.25
2023-02-11T03:17:00.755Z,100056.63
2023-02-11T03:19:33.233Z,100068.00
2023-02-11T03:22:00.779Z,100056.63
2023-02-11T03:24:31.767Z,100084.03
2023-02-11T03:27:03.535Z,100069.66
2023-02-11T03:29:42.403Z,100076.09
2023-02-11T03:32:25.484Z,100077.16
2023-02-11T03:34:57.548Z,100080.63
2023-02-11T03:37:27.988Z,100080.16
2023-02-11T03:40:11.349Z,100083.28
2023-02-11T03:42:51.622Z,100086.88
2023-02-11T03:45:22.008Z,100082.91
2023-02-11T03:48:00.340Z,100080.34
2023-02-11T03:50:30.051Z,100070.75
2023-02-11T03:52:58.918Z,100065.56
2023-02-11T03:55:26.984Z,100063.06
2023-02-11T03:57:54.181Z,100075.44
2023-02-11T04:00:20.690Z,100075.66
2023-02-11T04:02:47.245Z,100080.91
2023-02-11T04:05:16.365Z,100075.28
2023-02-11T04:07:42.869Z,100053.69
2023-02-11T04:10:09.464Z,100057.31
2023-02-11T04:12:36.952Z,100047.09
2023-02-11T04:15:03.568Z,100025.38
2023-02-11T04:17:30.041Z,100034.00
2023-02-11T04:19:57.083Z,100024.69
2023-02-11T04:22:23.601Z,100021.56
2023-02-11T04:24:50.024Z,100027.03
2023-02-11T04:27:16.858Z,100032.25
2023-02-11T04:29:43.364Z,100026.03
2023-02-11T04:32:11.517Z,100027.28
2023-02-11T04:34:38.232Z,100013.56
2023-02-11T04:37:04.781Z,100007.88
2023-02-11T04:39:31.257Z,99996.81
2023-02-11T04:41:57.730Z,99990.75
2023-02-11T04:44:24.182Z,99996.97
2023-02-11T04:46:50.619Z,99992.09
2023-02-11T04:49:17.340Z,99987.69
2023-02-11T04:51:49.317Z,99981.16
2023-02-11T04:54:16.760Z,99955.88
2023-02-11T04:56:43.250Z,99965.78
2023-02-11T04:59:09.796Z,99958.88
2023-02-11T05:01:36.316Z,99969.63
2023-02-11T05:04:02.879Z,99982.75
2023-02-11T05:06:29.339Z,99978.00
2023-02-11T05:08:56.376Z,99978.94
2023-02-11T05:11:24.401Z,99968.66
2023-02-11T05:13:51.508Z,99969.50
2023-02-11T05:16:18.728Z,99970.22
2023-02-11T05:18:45.505Z,99963.56
2023-02-11T05:21:15.920Z,99979.78
2023-02-11T05:23:42.580Z,99986.38
2023-02-11T05:26:09.716Z,99987.44
2023-02-11T05:28:36.344Z,99994.25
2023-02-11T05:31:03.511Z,100002.25
2023-02-11T05:33:30.026Z,100018.13
2023-02-11T05:36:04.453Z,100021.44
2023-02-11T05:38:30.900Z,100030.97
2023-02-11T05:40:57.382Z,100040.63
2023-02-11T05:43:23.903Z,100036.50
2023-02-11T05:45:50.767Z,100014.53
2023-02-11T05:48:17.825Z,100019.53
2023-02-11T05:50:44.784Z,100013.34
2023-02-11T05:53:11.733Z,100007.03
2023-02-11T05:55:38.399Z,100004.06
2023-02-11T05:58:05.970Z,99991.06
2023-02-11T06:00:32.453Z,99995.69
2023-02-11T06:02:59.012Z,100009.75
2023-02-11T06:05:26.174Z,100000.59
2023-02-11T06:07:52.876Z,99997.09
2023-02-11T06:10:19.338Z,99998.56
2023-02-11T06:12:46.876Z,100003.59
2023-02-11T06:15:13.439Z,99999.50
2023-02-11T06:17:39.985Z,100001.69
2023-02-11T06:20:09.308Z,99993.91
2023-02-11T06:22:35.809Z,100000.69
2023-02-11T06:25:02.522Z,99993.66
2023-02-11T06:27:29.753Z,99987.56
2023-02-11T06:29:56.323Z,99984.47
2023-02-11T06:32:42.707Z,99985.09
2023-02-11T06:35:11.773Z,99990.22
2023-02-11T06:37:38.943Z,99997.50
2023-02-11T06:40:06.094Z,99998.91
2023-02-11T06:42:32.613Z,99995.22
2023-02-11T06:44:59.114Z,99993.09
2023-02-11T06:47:26.310Z,100006.69
2023-02-11T06:49:52.748Z,100008.34
2023-02-11T06:52:19.174Z,100008.72
2023-02-11T06:54:46.407Z,100006.47
2023-02-11T06:57:12.840Z,100012.19
2023-02-11T06:59:39.412Z,100021.50
2023-02-11T07:02:05.977Z,100016.00
2023-02-11T07:04:32.953Z,100007.50
2023-02-11T07:06:59.380Z,100000.09
2023-02-11T07:09:25.856Z,99999.03
2023-02-11T07:11:52.446Z,100011.19
2023-02-11T07:14:19.102Z,100012.38
2023-02-11T07:16:46.024Z,100020.72
2023-02-11T07:19:12.519Z,100014.66
2023-02-11T07:21:38.931Z,100017.16
2023-02-11T07:24:11.274Z,100020.25
2023-02-11T07:26:38.151Z,100009.72
2023-02-11T07:29:04.887Z,100015.06
2023-02-11T07:31:31.884Z,100018.06
2023-02-11T07:34:00.898Z,100010.19
2023-02-11T07:36:29.577Z,100016.25
2023-02-11T07:38:56.311Z,100013.84
2023-02-11T07:41:24.124Z,100010.84
2023-02-11T07:43:50.601Z,100010.34
2023-02-11T07:46:23.381Z,100008.03
2023-02-11T07:48:49.998Z,100010.78
2023-02-11T07:51:25.231Z,100010.78
2023-02-11T07:53:52.082Z,99983.78
2023-02-11T07:56:20.323Z,100021.81
2023-02-11T07:58:47.340Z,100013.69
2023-02-11T08:01:27.142Z,100014.06
2023-02-11T08:03:55.513Z,100015.94
2023-02-11T08:06:24.250Z,100012.63
2023-02-11T08:08:51.493Z,100025.09
2023-02-11T08:11:22.152Z,100031.88
2023-02-11T08:13:48.850Z,100025.97
2023-02-11T08:16:19.863Z,100016.25
2023-02-11T08:18:47.916Z,100027.59
2023-02-11T08:21:14.356Z,100024.78
2023-02-11T08:23:42.675Z,100029.50
2023-02-11T08:26:15.696Z,100027.78
2023-02-11T08:28:43.726Z,100014.13
2023-02-11T08:31:21.956Z,100023.03
2023-02-11T08:33:49.160Z,100028.03
2023-02-11T08:36:18.609Z,100022.78
2023-02-11T08:38:45.552Z,100021.81
2023-02-11T08:41:12.121Z,100026.00
2023-02-11T08:43:41.598Z,100028.75
2023-02-11T08:46:10.287Z,100039.03
2023-02-11T08:48:38.095Z,100044.72
2023-02-11T08:51:14.673Z,100042.53
2023-02-11T08:53:41.323Z,100033.47
2023-02-11T08:56:12.190Z,100037.81
2023-02-11T08:58:40.248Z,100043.63
2023-02-11T09:01:12.227Z,100046.31
2023-02-11T09:03:38.742Z,100051.75
2023-02-11T09:06:07.338Z,100047.91
2023-02-11T09:08:36.021Z,100038.22
2023-02-11T09:11:03.722Z,100025.44
2023-02-11T09:13:31.092Z,100038.28
2023-02-11T09:15:59.081Z,100038.56
2023-02-11T09:18:25.676Z,100043.31
2023-02-11T09:20:52.752Z,100038.31
2023-02-11T09:23:19.608Z,100044.44
2023-02-11T09:25:46.208Z,100047.50
2023-02-11T09:28:12.734Z,100059.97
2023-02-11T09:30:39.843Z,100058.88
2023-02-11T09:33:06.334Z,100066.78
2023-02-11T09:35:34.141Z,100067.50
2023-02-11T09:38:00.695Z,100061.53
2023-02-11T09:40:27.174Z,100060.28
2023-02-11T09:43:18.439Z,100067.78
2023-02-11T09:45:45.327Z,100065.72
2023-02-11T09:48:18.865Z,100057.78
2023-02-11T09:50:55.927Z,100059.31
2023-02-11T09:53:25.893Z,100065.56
2023-02-11T09:55:55.826Z,100071.94
2023-02-11T09:58:34.444Z,100063.59
2023-02-11T10:01:30.578Z,100071.06
2023-02-11T10:04:14.499Z,100069.06
2023-02-11T10:06:46.749Z,100061.53
2023-02-11T10:09:25.696Z,100061.94
2023-02-11T10:12:01.914Z,100058.19
2023-02-11T10:14:59.869Z,100056.50
2023-02-11T10:17:32.198Z,100056.22
2023-02-11T10:20:15.144Z,100065.50
2023-02-11T10:22:49.338Z,100067.03
2023-02-11T10:25:29.826Z,100072.00
2023-02-11T10:27:59.719Z,100070.31
2023-02-11T10:30:34.734Z,100074.41
2023-02-11T10:33:06.443Z,100073.06
2023-02-11T10:35:33.388Z,100079.81
2023-02-11T10:38:00.592Z,100078.59
2023-02-11T10:40:30.301Z,100083.59
2023-02-11T10:43:05.868Z,100077.50
2023-02-11T10:45:36.565Z,100073.56
2023-02-11T10:48:38.436Z,100081.34
2023-02-11T10:51:12.300Z,100069.06
2023-02-11T10:53:40.945Z,100062.06
2023-02-11T10:56:10.538Z,100062.16
2023-02-11T10:58:46.320Z,100064.59
2023-02-11T11:01:23.890Z,100044.34
2023-02-11T11:03:52.865Z,100056.41
2023-02-11T11:06:31.550Z,100045.53
2023-02-11T11:08:58.592Z,100041.84
2023-02-11T11:11:26.661Z,100050.50
2023-02-11T11:13:53.011Z,100057.97
2023-02-11T11:16:32.524Z,100065.09
2023-02-11T11:19:08.132Z,100062.56
2023-02-11T11:21:50.144Z,100053.00
2023-02-11T11:24:31.146Z,100049.66
2023-02-11T11:27:01.377Z,100044.47
2023-02-11T11:29:48.331Z,100048.34
2023-02-11T11:32:25.376Z,100042.94
2023-02-11T11:34:56.327Z,100045.78
2023-02-11T11:37:26.658Z,100049.25
2023-02-11T11:39:59.107Z,100036.97
2023-02-11T11:42:32.335Z,100034.06
2023-02-11T11:45:20.065Z,100042.50
2023-02-11T11:47:58.245Z,100046.34
2023-02-11T11:50:33.173Z,100051.53
2023-02-11T11:53:42.440Z,100046.72
2023-02-11T11:56:19.640Z,100042.56
2023-02-11T11:58:46.393Z,100038.94
2023-02-11T12:01:18.588Z,100038.28
2023-02-11T12:03:49.745Z,100033.31
2023-02-11T12:06:25.207Z,100035.63
2023-02-11T12:09:09.822Z,100044.91
2023-02-11T12:11:37.049Z,100046.22
2023-02-11T12:14:11.989Z,100048.22
2023-02-11T12:16:51.906Z,100041.72
2023-02-11T12:19:31.718Z,100050.19
2023-02-11T12:22:19.835Z,100052.47
2023-02-11T12:25:04.289Z,100036.03
2023-02-11T12:27:46.065Z,100044.41
2023-02-11T12:30:50.325Z,100042.63
2023-02-11T12:33:49.580Z,100040.50
2023-02-11T12:36:43.480Z,100043.47
2023-02-11T12:39:40.672Z,100049.16
2023-02-11T12:42:57.023Z,100001.56
2023-02-11T12:45:38.658Z,100016.16
2023-02-11T12:48:35.895Z,100034.81
2023-02-11T12:51:24.220Z,100034.03
2023-02-11T12:54:08.304Z,100029.22
2023-02-11T12:56:45.817Z,100039.81
2023-02-11T12:59:50.062Z,100032.16
2023-02-11T13:02:45.477Z,100030.38
2023-02-11T13:05:30.699Z,100037.19
2023-02-11T13:08:35.486Z,100033.41
2023-02-11T13:11:14.402Z,100030.63
2023-02-11T13:13:55.851Z,100033.56
2023-02-11T13:16:48.114Z,100031.59
2023-02-11T13:19:24.756Z,100033.75
2023-02-11T13:22:06.322Z,100033.75
2023-02-11T13:24:47.900Z,100035.09
2023-02-11T13:27:38.854Z,100032.53
2023-02-11T13:30:23.347Z,100030.25
2023-02-11T13:32:55.769Z,100024.97
2023-02-11T13:35:39.900Z,100025.47
2023-02-11T13:38:22.578Z,100022.22
2023-02-11T13:41:04.991Z,100025.72
2023-02-11T13:43:34.344Z,100033.03
2023-02-11T13:46:21.211Z,100033.00
2023-02-11T13:48:53.029Z,100019.03
2023-02-11T13:51:36.655Z,100019.03
2023-02-11T13:54:05.149Z,100018.06
2023-02-11T13:56:34.756Z,100022.69
2023-02-11T13:59:25.496Z,100020.72
2023-02-11T14:02:23.658Z,100016.47
2023-02-11T14:05:37.835Z,100017.59
2023-02-11T14:08:33.229Z,100016.47
2023-02-11T14:11:01.007Z,100018.44
2023-02-11T14:13:46.982Z,100018.06
2023-02-11T14:16:36.319Z,100013.06
2023-02-11T14:19:03.910Z,100015.72
2023-02-11T14:21:36.823Z,100012.41
2023-02-11T14:24:04.790Z,100009.19
2023-02-11T14:27:00.825Z,100007.69
2023-02-11T14:29:43.901Z,99997.72
2023-02-11T14:32:31.502Z,99966.38
2023-02-11T14:35:25.910Z,100010.97
2023-02-11T14:38:18.556Z,100009.97
2023-02-11T14:40:58.483Z,100005.94
2023-02-11T14:43:30.727Z,100012.06
2023-02-11T14:45:58.606Z,100016.44
2023-02-11T14:48:31.591Z,100013.66
2023-02-11T14:51:02.630Z,100020.31
2023-02-11T14:53:31.745Z,100019.78
2023-02-11T14:55:58.334Z,100014.03
2023-02-11T14:58:27.756Z,100026.06
2023-02-11T15:01:02.118Z,100022.13
2023-02-11T15:03:49.518Z,100023.34
2023-02-11T15:06:31.975Z,100035.44
2023-02-11T15:09:02.629Z,100029.75
2023-02-11T15:11:34.511Z,100033.38
2023-02-11T15:14:30.407Z,100040.19
2023-02-11T15:17:01.155Z,100033.72
2023-02-11T15:19:41.474Z,100035.81
2023-02-11T15:22:20.052Z,100031.34
2023-02-11T15:24:58.454Z,100025.50
2023-02-11T15:27:25.805Z,100039.13
2023-02-11T15:29:52.509Z,100028.53
2023-02-11T15:32:25.194Z,100025.44
2023-02-11T15:34:54.448Z,100017.09
2023-02-11T15:37:29.735Z,100026.97
2023-02-11T15:40:10.817Z,100012.81
2023-02-11T15:42:51.895Z,100017.66
2023-02-11T15:45:29.510Z,100021.59
2023-02-11T15:48:18.933Z,100024.63
2023-02-11T15:50:54.739Z,100028.25
2023-02-11T15:53:28.918Z,100021.88
2023-02-11T15:56:20.451Z,100032.78
2023-02-11T15:58:49.377Z,100034.75
2023-02-11T16:01:16.011Z,100033.06
2023-02-11T16:03:43.752Z,100031.81
2023-02-11T16:06:18.820Z,100033.06
2023-02-11T16:09:08.222Z,100034.50
2023-02-11T16:11:56.426Z,100036.06
2023-02-11T16:14:23.304Z,100005.72
2023-02-11T16:16:56.519Z,100045.75
2023-02-11T16:19:25.888Z,100041.66
2023-02-11T16:21:54.021Z,100049.97
2023-02-11T16:24:35.538Z,100048.00
2023-02-11T16:27:18.415Z,100048.44
2023-02-11T16:29:47.511Z,100055.28
2023-02-11T16:32:18.325Z,100067.00
2023-02-11T16:34:45.113Z,100066.47
2023-02-11T16:37:11.808Z,100063.88
2023-02-11T16:39:38.341Z,100066.78
2023-02-11T16:42:07.581Z,100079.34
2023-02-11T16:44:34.799Z,100083.22
2023-02-11T16:47:05.895Z,100081.59
2023-02-11T16:49:41.570Z,100066.31
2023-02-11T16:52:12.640Z,100081.59
2023-02-11T16:54:39.259Z,100089.19
2023-02-11T16:57:15.924Z,100083.25
2023-02-11T16:59:42.812Z,100082.13
2023-02-11T17:02:15.560Z,100079.91
2023-02-11T17:04:42.837Z,100076.72
2023-02-11T17:07:09.324Z,100083.00
2023-02-11T17:09:36.044Z,100088.59
2023-02-11T17:12:02.481Z,100081.09
2023-02-11T17:14:29.144Z,100087.75
2023-02-11T17:16:56.410Z,100063.31
2023-02-11T17:19:23.077Z,100082.34
2023-02-11T17:21:52.554Z,100089.00
2023-02-11T17:24:20.998Z,100095.00
2023-02-11T17:26:48.108Z,100095.56
2023-02-11T17:29:18.482Z,100102.94
2023-02-11T17:31:45.385Z,100088.88
2023-02-11T17:34:12.283Z,100092.38
2023-02-11T17:36:41.231Z,100097.22
2023-02-11T17:39:08.837Z,100095.53
2023-02-11T17:41:36.796Z,100094.31
2023-02-11T17:44:03.426Z,100103.03
2023-02-11T17:46:29.858Z,100111.28
2023-02-11T17:48:59.570Z,100102.22
2023-02-11T17:51:32.416Z,100097.38
2023-02-11T17:54:01.071Z,100106.41
2023-02-11T17:56:29.871Z,100111.41
2023-02-11T17:58:56.307Z,100111.69
2023-02-11T18:01:23.111Z,100116.56
2023-02-11T18:03:49.677Z,100102.53
2023-02-11T18:06:16.724Z,100108.41
2023-02-11T18:08:43.378Z,100111.72
2023-02-11T18:11:11.876Z,100117.56
2023-02-11T18:13:38.548Z,100118.25
2023-02-11T18:16:06.026Z,100118.13
2023-02-11T18:18:32.497Z,100111.72
2023-02-11T18:21:00.890Z,100123.69
2023-02-11T18:23:28.046Z,100120.19
2023-02-11T18:25:54.511Z,100123.69
2023-02-11T18:28:21.098Z,100128.28
2023-02-11T18:30:47.919Z,100115.59
2023-02-11T18:33:14.475Z,100128.53
2023-02-11T18:35:42.102Z,100135.34
2023-02-11T18:38:09.598Z,100137.84
2023-02-11T18:40:40.205Z,100130.75
2023-02-11T18:43:07.348Z,100136.63
2023-02-11T18:45:34.311Z,100136.47
2023-02-11T18:48:03.508Z,100137.56
2023-02-11T18:50:29.907Z,100139.78
2023-02-11T18:52:56.637Z,100135.63
2023-02-11T18:55:25.676Z,100119.06
2023-02-11T18:57:52.898Z,100127.97
2023-02-11T19:00:20.594Z,100142.31
2023-02-11T19:02:47.055Z,100132.28
2023-02-11T19:05:13.756Z,100132.56
2023-02-11T19:07:40.218Z,100130.06
2023-02-11T19:10:07.371Z,100128.13
2023-02-11T19:12:34.111Z,100130.34
2023-02-11T19:15:00.830Z,100134.91
2023-02-11T19:17:27.498Z,100125.72
2023-02-11T19:19:54.006Z,100140.38
2023-02-11T19:22:20.447Z,100142.00
2023-02-11T19:24:46.933Z,100132.00
2023-02-11T19:27:13.451Z,100122.94
2023-02-11T19:29:39.904Z,100124.63
2023-02-11T19:32:06.504Z,100129.22
2023-02-11T19:34:33.891Z,100124.63
2023-02-11T19:37:01.580Z,100126.25
2023-02-11T19:39:28.113Z,100137.50
2023-02-11T19:41:54.743Z,100137.25
2023-02-11T19:44:21.491Z,100125.81
2023-02-11T19:46:50.133Z,100128.72
2023-02-11T19:49:23.620Z,100136.66
2023-02-11T19:51:51.264Z,100135.84
2023-02-11T19:54:17.822Z,100136.94
2023-02-11T19:56:45.276Z,100142.06
2023-02-11T19:59:13.769Z,100138.59
2023-02-11T20:01:40.935Z,100144.13
2023-02-11T20:04:08.205Z,100139.84
2023-02-11T20:06:36.115Z,100151.28
2023-02-11T20:09:07.040Z,100140.00
2023-02-11T20:11:34.680Z,100148.06
2023-02-11T20:14:01.146Z,100153.66
2023-02-11T20:16:46.171Z,100149.06
2023-02-11T20:19:18.730Z,100145.84
2023-02-11T20:21:48.027Z,100154.19
2023-02-11T20:24:16.339Z,100152.53
2023-02-11T20:26:45.330Z,100130.41
2023-02-11T20:29:12.094Z,100160.16
2023-02-11T20:31:38.724Z,100154.44
2023-02-11T20:34:05.250Z,100157.94
2023-02-11T20:36:35.552Z,100160.16
2023-02-11T20:39:04.869Z,100161.84
2023-02-11T20:41:34.474Z,100166.44
2023-02-11T20:44:04.171Z,100169.19
2023-02-11T20:46:32.896Z,100156.84
2023-02-11T20:49:00.668Z,100169.25
2023-02-11T20:51:29.720Z,100162.28
2023-02-11T20:53:56.567Z,100177.94
2023-02-11T20:56:29.314Z,100173.91
2023-02-11T20:58:58.001Z,100158.34
2023-02-11T21:01:27.491Z,100160.28
2023-02-11T21:04:03.579Z,100148.28
2023-02-11T21:06:36.104Z,100151.38
2023-02-11T21:09:06.106Z,100138.97
2023-02-11T21:11:33.217Z,100147.34
2023-02-11T21:14:00.509Z,100152.06
2023-02-11T21:16:27.230Z,100151.09
2023-02-11T21:18:55.325Z,100150.66
2023-02-11T21:21:22.415Z,100142.88
2023-02-11T21:23:49.158Z,100133.84
2023-02-11T21:26:16.895Z,100145.22
2023-02-11T21:28:44.255Z,100141.63
2023-02-11T21:31:19.433Z,100121.13
2023-02-11T21:33:47.181Z,100129.69
2023-02-11T21:36:14.979Z,100139.13
2023-02-11T21:38:41.855Z,100152.59
2023-02-11T21:41:08.318Z,100145.75
2023-02-11T21:43:34.952Z,100103.97
2023-02-11T21:46:07.561Z,100151.59
2023-02-11T21:48:34.029Z,100152.84
2023-02-11T21:51:05.431Z,100146.00
2023-02-11T21:53:32.167Z,100144.78
2023-02-11T21:56:14.533Z,100143.19
2023-02-11T21:58:41.375Z,100156.50
2023-02-11T22:01:20.285Z,100158.91
2023-02-11T22:03:47.525Z,100147.78
2023-02-11T22:06:17.424Z,100157.16
2023-02-11T22:08:43.953Z,100163.25
2023-02-11T22:11:12.542Z,100175.50
2023-02-11T22:13:39.947Z,100170.69
2023-02-11T22:16:09.432Z,100169.25
2023-02-11T22:18:36.523Z,100170.38
2023-02-11T22:21:06.550Z,100175.50
2023-02-11T22:23:33.769Z,100172.78
2023-02-11T22:26:05.516Z,100167.50
2023-02-11T22:28:32.045Z,100178.34
2023-02-11T22:30:59.438Z,100186.25
2023-02-11T22:33:27.513Z,100172.97
2023-02-11T22:36:01.759Z,100189.00
2023-02-11T22:38:32.229Z,100190.19
2023-02-11T22:41:00.682Z,100195.22
2023-02-11T22:43:30.036Z,100191.09
2023-02-11T22:46:00.125Z,100182.34
2023-02-11T22:48:26.942Z,100187.69
2023-02-11T22:50:53.536Z,100183.09
2023-02-11T22:53:20.053Z,100175.63
2023-02-11T22:55:46.505Z,100185.38
2023-02-11T22:58:12.954Z,100188.72
2023-02-11T23:00:41.238Z,100190.16
2023-02-11T23:03:08.585Z,100193.25
2023-02-11T23:05:41.484Z,100189.16
2023-02-11T23:08:10.241Z,100191.81
2023-02-11T23:10:38.401Z,100184.38
2023-02-11T23:13:05.919Z,100185.19
2023-02-11T23:15:33.185Z,100187.59
2023-02-11T23:18:00.719Z,100184.25
2023-02-11T23:20:27.187Z,100173.34
2023-02-11T23:22:53.723Z,100181.72
2023-02-11T23:25:20.123Z,100180.63
2023-02-11T23:27:46.759Z,100182.31
2023-02-11T23:30:13.677Z,100175.63
2023-02-11T23:32:41.142Z,100186.41
2023-02-11T23:35:08.079Z,100188.22
2023-02-11T23:37:34.659Z,100190.25
2023-02-11T23:40:01.125Z,100180.81
2023-02-11T23:42:28.642Z,100178.53
2023-02-11T23:44:55.196Z,100189.88
2023-02-11T23:47:21.667Z,100191.34
2023-02-11T23:49:48.169Z,100186.34
2023-02-11T23:52:15.623Z,100187.75
2023-02-11T23:54:43.297Z,100186.34
2023-02-11T23:57:09.717Z,100200.47
2023-02-11T23:59:36.179Z,100197.59
